Tiempo atmosférico en la estación meteorológica de Puerto Alto del León, Madrid (1532 m.)



Fecha
DESCASC
Temp. máxima en grados centígrados (hora)
DESCASC
Temp. mínima en grados centígrados (hora)
DESCASC
Temp. media en grados centígrados
DESCASC
Racha de viento máxima en m/sg (hora)
DESCASC
Velocidad máxima media en intervalos de 10 minutos(hora)
DESCASC
Precipitaciones diarias en mm
DESCASC
Precipitaciones de 00:00 a 06:00 en mm
DESCASC
Precipitaciones de 06:00 a 12:00 en mm
DESCASC
Precipitaciones de 12:00 a 18:00 en mm
DESCASC
Precipitaciones de 18:00 a 24:00 en mm
DESCASC
22-04-2019 11.9 (16:40) 2.2 (08:20) 7 13.89 (12:50) 5 (13:50) 0 0 0 0 0
21-04-2019 6.4 (12:30) 1.9 (06:30) 4.2 11.67 (01:00) 6.94 (01:00) 0.3 0 0 0.3 0
20-04-2019 13.5 (17:30) 4.5 (23:59) 9 15.28 (00:10) 9.17 (00:10) 0 0 0 0 0
19-04-2019 5.5 (22:00) 2.2 (03:50) 3.9 20.83 (20:50) 10.28 (21:20) 12.5 5.2 0.5 3.5 3.3
18-04-2019 7.1 (01:30) 2.4 (00:00) 4.8 12.5 (01:40) 6.67 (01:40) 20.8 8.3 4.5 2.4 5.6
17-04-2019 14.5 (18:00) 3.8 (00:00) 9.1 18.33 (00:50) 9.44 (01:50) 3.3 0 0 0 3.3
16-04-2019 12.4 (17:10) 1.3 (00:00) 6.8 15.56 (00:50) 10.56 (01:10) 0 0 0 0 0
15-04-2019 15.7 (17:30) 3.4 (00:00) 9.5 15.83 (18:50) 10.28 (23:10) 0.1 0 0 0 0.1
14-04-2019 15.6 (18:10) 5.2 (00:00) 10.4 13.61 (03:30) 10 (03:30) 0 0 0 0 0
13-04-2019 14.2 (16:30) 0.5 (00:00) 7.3 9.44 (00:10) 6.67 (00:10) 0 0 0 0 0
12-04-2019 9.5 (17:50) -1.9 (-00:0) 3.8 15.28 (14:00) 10 (13:50) 0 0 0 0 0
11-04-2019 7.2 (17:00) -1.6 (-00:0) 2.8 13.89 (04:50) 9.44 (04:50) 0 0 0 0 0
10-04-2019 4.2 (16:30) -1.3 (-00:0) 1.4 22.78 (01:30) 15.28 (01:50) 1 0 0.4 0.3 0.3
09-04-2019 4.3 (17:50) -1.7 (-00:0) 1.3 21.67 (17:40) 14.17 (18:10) 0.8 0 0 0.7 0.1
08-04-2019 8.2 (16:00) -0.8 (-00:0) 3.7 15.28 (21:50) 11.11 (21:50) 3.3 0.4 1.2 0 1.7
07-04-2019 4.4 (15:20) -2.9 (-00:0) 0.8 20.83 (03:50) 14.44 (00:10) 3.6 0.3 0 0.8 2.5
06-04-2019 0.7 (16:50) -3.6 (-00:0) -1.4 23.06 (22:20) 16.39 (22:20) 0.2 0 0.1 0.1 0
05-04-2019 1.7 (00:00) -3 (-00:0) -0.6 11.11 (13:40) 7.5 (13:40) 6.9 0.9 0.9 4.9 0.2
04-04-2019 8.1 (16:20) -6.2 (-00:0) 1 17.5 (00:10) 11.39 (00:10) 0 0 0 0 0
03-04-2019 5.4 (16:50) -1.6 (-00:0) 1.9 21.11 (15:30) 13.33 (15:00) 0 0 0 0 0
02-04-2019 11 (15:10) 1.6 (00:00) 6.3 10.83 (22:30) 7.5 (23:30) 0.5 0 0 0.5 0
01-04-2019 8.1 (16:10) 2.2 (00:00) 5.2 7.78 (00:50) 4.72 (01:00) 0.7 0.2 0 0 0.5
31-03-2019 6.7 (13:20) 2.1 (00:00) 4.4 9.44 (14:20) 6.11 (08:00) 0.1 0 0 0 0.1
30-03-2019 11.4 (17:00) -0.7 (-00:0) 5.3 10.56 (02:00) 5.83 (00:20) 0 0 0 0 0
29-03-2019 10 (15:10) 0.7 (00:00) 5.3 13.33 (10:40) 7.5 (11:30) 0 0 0 0 0
28-03-2019 11.4 (16:20) 0.9 (00:00) 6.1 11.67 (01:50) 6.67 (01:50) 0 0 0 0 0
27-03-2019 12.5 (17:20) -0.3 (00:00) 6.1 11.67 (00:20) 7.5 (00:20) 0 0 0 0 0
26-03-2019 13.3 (15:40) -1 (-00:0) 6.2 11.94 (09:40) 7.22 (09:10) 0 0 0 0 0
25-03-2019 13.7 (14:50) 1.7 (00:00) 7.7 10.83 (13:00) 6.11 (12:50) 0 0 0 0 0

Gráficas

Temp. máximas Temp. mínimas Temp. medias Precipitaciones Rachas de viento máximas Velocidades máximas media en intervalos de 10 minutos

Datos horarios

Fecha y hora oficial Temperatura (ºC) Velocidad del viento (km/h) Dirección del viento Racha (km/h) Dirección de racha Precipitación (mm) Presión (hPa) Tendencia (hPa) Humedad (%)
2019-04-23 23:00:00 -1.1 26 Este 47 Este 0 832.2 1.9 85
2019-04-23 22:00:00 -0.9 30 Este 57 Este 0 831.6 1.7 84
2019-04-23 21:00:00 -1.1 41 Nordeste 67 Este 0.4 830.3 0.8 84
2019-04-23 20:00:00 0.3 21 Norte 50 Noroeste 0 830.3 1.3 74
2019-04-23 19:00:00 0.8 13 Nordeste 25 Nordeste 1 829.9 0.8 81
2019-04-23 18:00:00 0.2 13 Norte 38 Norte 0.5 829.5 0.3 67
2019-04-23 17:00:00 5.7 18 Noroeste 40 Noroeste 0 829 -0.3 38
2019-04-23 16:00:00 5.9 11 Oeste 35 Norte 0 829.1 -0.3 36
2019-04-23 15:00:00 5.1 7 Norte 23 Oeste 0 829.2 0 40
2019-04-23 14:00:00 4.2 7 Noroeste 24 Noroeste 0 829.3 0.5 44
2019-04-23 13:00:00 3.3 4 Norte 17 Oeste 0.1 829.4 0.5 70
2019-04-23 12:00:00 2.5 6 Nordeste 17 Oeste 0 829.2 0.6 75
2019-04-23 11:00:00 2.7 7 Sudoeste 22 Sudoeste 0 828.8 0.2 80
2019-04-23 10:00:00 3.2 3 Sudoeste 20 Oeste 0.4 828.9 0.5 80
2019-04-23 09:00:00 3.1 6 Oeste 20 Oeste 0.3 828.6 -0.2 83
2019-04-23 08:00:00 3.2 6 Sudoeste 33 Sur 0.3 828.6 -0.6 84
2019-04-23 07:00:00 3.5 7 Sudoeste 34 Sudoeste 0 828.4 -1.3 80
2019-04-23 06:00:00 3.9 4 Sudoeste 28 Norte 0 828.8 -1.7 77
2019-04-23 05:00:00 4.5 9 Sudoeste 24 Sudoeste 0 829.2 -1.7 74
2019-04-23 04:00:00 4.6 3 Sudoeste 35 Sudeste 0 829.7 -1.7 71
2019-04-23 03:00:00 5.2 6 Este 28 Este 0 830.5 -1.4 67
2019-04-23 02:00:00 5.2 8 Este 22 Este 0 830.9 -1.2 74
2019-04-23 01:00:00 6.2 9 Este 23 Este 0 831.4 -0.9 65
2019-04-23 00:00:00 5.7 11 Este 16 Este 0 831.9 -0.4 68
2019-04-22 23:00:00 6 9 Este 14 Este 0 832.1 -0.4 67
2019-04-22 22:00:00 6.8 8 Este 15 Este 0 832.3 -0.2 66
2019-04-22 21:00:00 6.2 9 Este 14 Este 0 832.3 -0.5 67
2019-04-22 20:00:00 7.1 12 Este 16 Este 0 832.5 -0.4 61
2019-04-22 19:00:00 9.4 8 Norte 23 Nordeste 0 832.5 -1.1 40
2019-04-22 18:00:00 9.4 14 Nordeste 26 Norte 0 832.8 -1.2 39
2019-04-22 17:00:00 10.6 15 Nordeste 28 Norte 0 832.9 -1.7 37
2019-04-22 16:00:00 11 14 Nordeste 31 Norte 0 833.6 -1.8 42
2019-04-22 15:00:00 10 17 Norte 31 Norte 0 834 -1.8 45
2019-04-22 14:00:00 7.6 18 Este 31 Este 0 834.6 -1.3 52
2019-04-22 13:00:00 6.6 14 Este 50 Este 0 835.4 -0.3 58
2019-04-22 12:00:00 5.8 13 Este 21 Este 0 835.8 -0.1 60
2019-04-22 11:00:00 4.7 8 Este 17 Este 0 835.9 -0.2 63
2019-04-22 10:00:00 3.8 9 Este 13 Este 0 835.7 -0.4 66
2019-04-22 09:00:00 3 8 Este 12 Este 0 835.9 -0.5 75
2019-04-22 08:00:00 2.4 6 Este 8 Este 0 836.1 -1.1 80
2019-04-22 07:00:00 2.5 4 Este 7 Este 0 836.1 -1.7 80
2019-04-22 06:00:00 2.6 0 Calma 6 Este 0 836.4 -2.1 77
2019-04-22 05:00:00 2.7 0 Calma 8 Este 0 837.2 -2 77
2019-04-22 04:00:00 2.7 6 Este 9 Este 0 837.8 -1.7 76
2019-04-22 03:00:00 2.6 5 Este 10 Este 0 838.5 -1.4 77
2019-04-22 02:00:00 2.6 6 Este 16 Este 0 839.2 -1.2 77
2019-04-22 01:00:00 2.9 11 Este 21 Este 0 839.5 -0.8 75
2019-04-22 00:00:00 2.9 10 Este 20 Este 0 839.9 -0.2 73
2019-04-21 23:00:00 3 10 Este 20 Este 0 840.4 0.1 73
2019-04-21 22:00:00 3 12 Este 18 Este 0 840.3 -0.1 73
2019-04-21 21:00:00 3.2 9 Oeste 18 Oeste 0 840.1 -0.6 74
2019-04-21 20:00:00 3.6 10 Sur 17 Sur 0 840.3 -0.6 73
2019-04-21 19:00:00 3.9 8 Oeste 17 Sur 0 840.4 -1.2 71
2019-04-21 18:00:00 4.4 10 Sur 17 Sudeste 0 840.7 -1 70
2019-04-21 17:00:00 4.8 9 Sudoeste 17 Sudoeste 0.2 840.9 -1.2 74
2019-04-21 16:00:00 3.6 10 Sur 24 Este 0.1 841.6 -1.2 76
2019-04-21 15:00:00 4.6 13 Este 24 Este 0 841.7 -1.2 67
2019-04-21 14:00:00 5.4 12 Este 20 Este 0 842.1 -1.1 67
2019-04-21 13:00:00 4.5 8 Este 14 Este 0 842.8 -0.5 70
2019-04-21 12:00:00 4.5 6 Este 15 Este 0 842.9 -0.5 66
2019-04-21 11:00:00 3.5 7 Este 13 Este 0 843.2 -0.5 70
2019-04-21 10:00:00 3.1 10 Este 14 Este 0 843.3 -0.6 70
2019-04-21 09:00:00 3.2 4 Sur 15 Sur 0 843.4 -0.7 67
2019-04-21 08:00:00 3.6 7 Sur 25 Sudeste 0 843.7 -0.8 62
2019-04-21 07:00:00 2.7 5 Este 9 Este 0 843.9 -1.2 68
2019-04-21 06:00:00 2.4 8 Sur 19 Sur 0 844.1 -1.7 69
2019-04-21 05:00:00 2.6 12 Sur 24 Sur 0 844.5 -2.5 70
2019-04-21 04:00:00 2.4 18 Sur 33 Noroeste 0 845.1 -2.1 74
2019-04-21 03:00:00 3.1 24 Oeste 35 Oeste 0 845.8 -2.1 69
2019-04-21 02:00:00 3.3 21 Oeste 40 Oeste 0 847 -0.7 67
2019-04-21 01:00:00 3.9 25 Oeste 42 Oeste 0 847.2 -0.3 67
2019-04-21 00:00:00 4.5 23 Oeste 40 Oeste 0 847.9 0.7 59
2019-04-20 23:00:00 5.7 21 Oeste 40 Oeste 0 847.7 0.6 55
2019-04-20 22:00:00 6.9 23 Oeste 40 Oeste 0 847.5 0.1 48
2019-04-20 21:00:00 7.9 22 Oeste 38 Sudoeste 0 847.2 -0.1 42
2019-04-20 20:00:00 9 18 Sur 31 Sudoeste 0 847.1 -0.4 42
2019-04-20 19:00:00 10.8 12 Sur 36 Oeste 0 847.4 -0.7 36
2019-04-20 18:00:00 11.8 18 Sur 32 Sudeste 0 847.3 -0.7 30
2019-04-20 17:00:00 12.8 11 Sudoeste 25 Sudoeste 0 847.5 -1.1 30
2019-04-20 16:00:00 11.4 10 Sur 32 Sudoeste 0 848.1 -0.4 31
2019-04-20 15:00:00 12.6 15 Sudeste 31 Sudeste 0 848 -0.6 32
2019-04-20 14:00:00 11.4 9 Sudeste 23 Sudeste 0 848.6 0.4 32
2019-04-20 13:00:00 11.8 13 Este 29 Norte 0 848.5 0.3 25
2019-04-20 12:00:00 9.3 22 Este 35 Norte 0 848.6 0.3 30
2019-04-20 11:00:00 7.7 16 Este 27 Norte 0 848.2 -0.3 38
2019-04-20 10:00:00 7.5 12 Este 31 Norte 0 848.2 -0.1 37
2019-04-20 09:00:00 8.6 22 Este 40 Norte 0 848.3 0 29
2019-04-20 08:00:00 6.1 21 Este 33 Norte 0 848.5 -0.1 40
2019-04-20 07:00:00 6.7 15 Este 26 Norte 0 848.3 -0.4 37
2019-04-20 06:00:00 6.6 13 Este 53 Norte 0 848.3 -1.3 39
2019-04-20 05:00:00 7.8 13 Este 34 Norte 0 848.6 -0.7 36
2019-04-20 04:00:00 6.3 21 Este 48 Norte 0 848.7 -0.4 46
2019-04-20 03:00:00 5.3 23 Este 45 Norte 0 849.6 1.1 56
2019-04-20 02:00:00 5.5 20 Este 50 Norte 0 849.3 1.3 56
2019-04-20 01:00:00 5 27 Este 55 Norte 0 849.1 2 56
2019-04-20 00:00:00 5 32 Este 59 Norte 0 848.5 2.3 60
2019-04-19 23:00:00 5.2 36 Este 75 Norte 0 848 1.8 63
2019-04-19 22:00:00 5.3 35 Este 71 Norte 0 847.1 0.8 83
2019-04-19 21:00:00 5.1 35 Este 75 Norte 0.3 846.2 -0.2 84
2019-04-19 20:00:00 4.8 26 Este 46 Norte 1 846.2 -0.6 84
2019-04-19 19:00:00 4.6 21 Este 43 Norte 2 846.3 -0.8 84
2019-04-19 18:00:00 4.4 4 Este 16 Norte 0.6 846.4 -0.6 84
2019-04-19 17:00:00 4.8 6 Este 13 Norte 0.9 846.8 0.1 84
2019-04-19 16:00:00 3.7 4 Este 12 Norte 1 847.1 0.6 84
2019-04-19 15:00:00 3.9 5 Este 27 Norte 0.7 847 0.8 84
2019-04-19 14:00:00 3.5 17 Este 35 Norte 0.3 846.7 1.4 84
2019-04-19 13:00:00 3.3 17 Este 34 Norte 0 846.5 1.6 84
2019-04-19 12:00:00 3.1 19 Este 38 Norte 0 846.2 1.9 84
2019-04-19 11:00:00 2.8 18 Este 40 Norte 0 845.3 1.7 84
2019-04-19 10:00:00 2.5 21 Este 39 Norte 0 844.9 2 84
2019-04-19 09:00:00 2.5 23 Este 43 Norte 0.2 844.3 1.3 84
2019-04-19 08:00:00 2.5 25 Este 41 Norte 0.3 843.6 0.6 84
2019-04-19 07:00:00 2.5 26 Este 41 Norte 0 842.9 0.2 84
2019-04-19 06:00:00 2.5 18 Este 33 Norte 1 843 0.4 84
2019-04-19 05:00:00 2.4 19 Este 33 Norte 1.1 843 0 84
2019-04-19 04:00:00 2.3 20 Este 37 Norte 0.7 842.7 -0.4 84
2019-04-19 03:00:00 2.5 22 Este 44 Norte 1.6 842.6 -0.6 84
2019-04-19 02:00:00 2.6 17 Este 29 Norte 0.6 843 -0.5 84
2019-04-19 01:00:00 2.5 13 Este 23 Norte 0.2 843.1 0 84
2019-04-19 00:00:00 2.7 12 Este 23 Norte 2.8 843.2 0.6 84
2019-04-18 23:00:00 3.3 0 Calma 7 Norte 0.4 843.5 1.2 84
2019-04-18 22:00:00 3.4 0 Calma 8 Norte 0.9 843.1 0.7 84
2019-04-18 21:00:00 3.5 4 Este 8 Norte 1.4 842.6 0.4 84
2019-04-18 20:00:00 3.6 3 Este 10 Norte 0.1 842.3 -0.1 84
2019-04-18 19:00:00 3.4 6 Este 19 Norte 0 842.4 0.1 84
2019-04-18 18:00:00 3.6 12 Este 23 Norte 0.6 842.2 -0.4 84
2019-04-18 17:00:00 3.6 15 Este 30 Norte 0.7 842.4 -0.4 84
2019-04-18 16:00:00 3.4 16 Este 24 Norte 0.1 842.3 -1 84
2019-04-18 15:00:00 3.5 13 Este 24 Norte 0 842.6 -1.3 84
2019-04-18 14:00:00 2.9 14 Este 26 Norte 0.1 842.8 -0.9 84
2019-04-18 13:00:00 3.2 14 Este 25 Norte 0.9 843.3 0 84
2019-04-18 12:00:00 2.6 12 Este 20 Norte 1.7 843.9 0.4 84
2019-04-18 11:00:00 3.1 5 Este 15 Norte 0 843.7 0.5 84
2019-04-18 10:00:00 3.2 5 Este 18 Norte 0.2 843.3 0.5 84
2019-04-18 09:00:00 3 8 Este 12 Norte 1 843.5 1 84
2019-04-18 08:00:00 2.7 5 Este 14 Norte 1.1 843.2 0.2 84
2019-04-18 07:00:00 2.9 10 Este 21 Norte 0.5 842.8 -0.8 84
2019-04-18 06:00:00 3 11 Este 24 Norte 0.8 842.5 -1.1 84
2019-04-18 05:00:00 3.2 13 Este 26 Norte 1.3 843 -0.1 84
2019-04-18 04:00:00 3.2 8 Este 35 Norte 2.2 843.6 -0.1 81
2019-04-18 03:00:00 3.6 12 Este 41 Norte 1.5 843.6 -0.2 84
2019-04-18 02:00:00 6.4 22 Este 45 Norte 0.5 843.1 -0.6 84
2019-04-18 01:00:00 6.6 24 Este 37 Norte 2 843.7 -0.1 84
2019-04-18 00:00:00 7 16 Norte 29 Norte 0.2 843.8 0.8 79
2019-04-17 23:00:00 7.2 13 Este 20 Norte 0 843.7 1.6 79
2019-04-17 22:00:00 7.6 9 Este 41 Norte 0 843.8 2.1 70
2019-04-17 21:00:00 8.3 14 Este 48 Norte 2.4 843 2.3 64
2019-04-17 20:00:00 9.8 17 Norte 50 Noroeste 0.7 842.1 0.8 55
2019-04-17 19:00:00 13.7 0 Calma 49 Oeste 0 841.7 0 31
2019-04-17 18:00:00 14.5 28 Oeste 51 Oeste 0 840.7 -1.9 32
2019-04-17 17:00:00 12.9 27 Oeste 62 Oeste 0 841.3 -1.9 35
2019-04-17 16:00:00 12.9 26 Oeste 53 Oeste 0 841.7 -2.1 39
2019-04-17 15:00:00 11.3 23 Oeste 45 Oeste 0 842.6 -1.5 40
2019-04-17 14:00:00 10.7 26 Oeste 45 Oeste 0 843.2 -0.6 42
2019-04-17 13:00:00 10 26 Oeste 44 Oeste 0 843.8 -0.1 49
2019-04-17 12:00:00 8.5 23 Oeste 41 Noroeste 0 844.1 0.2 60
2019-04-17 11:00:00 5.9 24 Oeste 42 Oeste 0 843.8 0.3 83
2019-04-17 10:00:00 4 26 Oeste 49 Oeste 0 843.9 0.5 84
2019-04-17 09:00:00 4 29 Oeste 50 Oeste 0 843.9 0.2 84
2019-04-17 08:00:00 3.9 30 Oeste 47 Oeste 0 843.5 -0.7 84
2019-04-17 07:00:00 4 30 Oeste 48 Oeste 0 843.4 -0.8 84
2019-04-17 06:00:00 4.6 27 Oeste 41 Oeste 0 843.7 -1.3 83
2019-04-17 05:00:00 4.6 27 Oeste 47 Oeste 0 844.2 -0.6 82
2019-04-17 04:00:00 5.3 26 Oeste 47 Oeste 0 844.2 -1.1 80
2019-04-17 03:00:00 6 26 Oeste 54 Oeste 0 845 -0.2 77
2019-04-17 02:00:00 6.7 33 Oeste 56 Noroeste 0 844.8 -0.8 59
2019-04-17 01:00:00 8.3 30 Noroeste 66 Oeste 0 845.3 -0.8 35
2019-04-17 00:00:00 8.9 25 Oeste 42 Noroeste 0 845.2 -0.7 32
2019-04-16 23:00:00 8.7 24 Oeste 40 Oeste 0 845.6 -0.4 32
2019-04-16 22:00:00 8.5 21 Oeste 38 Oeste 0 846.1 -0.1 32
2019-04-16 21:00:00 9.1 23 Oeste 40 Oeste 0 845.9 -0.7 31
2019-04-16 20:00:00 10.5 23 Oeste 41 Noroeste 0 846 -1 27
2019-04-16 19:00:00 11.8 22 Oeste 37 Noroeste 0 846.2 -1.4 25
2019-04-16 18:00:00 11.7 23 Oeste 45 Oeste 0 846.6 -1.2 25
2019-04-16 17:00:00 11.9 20 Oeste 40 Sudoeste 0 847 -1.1 29
2019-04-16 16:00:00 11.6 21 Oeste 38 Oeste 0 847.6 -0.8 32
2019-04-16 15:00:00 11.1 24 Oeste 46 Sur 0 847.8 -0.8 35
2019-04-16 14:00:00 9.9 20 Sudeste 37 Sudeste 0 848.1 -0.2 36
2019-04-16 13:00:00 9.7 21 Oeste 36 Oeste 0 848.4 0.1 39
2019-04-16 12:00:00 8.4 19 Sur 32 Sur 0 848.6 0.3 42
2019-04-16 11:00:00 7.6 17 Sur 27 Sur 0 848.3 0.2 47
2019-04-16 10:00:00 5.7 14 Nordeste 24 Nordeste 0 848.3 0.5 53
2019-04-16 09:00:00 5.4 6 Nordeste 11 Nordeste 0 848.3 0.4 63
2019-04-16 08:00:00 1.7 0 Calma 10 Nordeste 0 848.1 0.7 84
2019-04-16 07:00:00 1.8 7 Nordeste 18 Nordeste 0 847.8 -0.1 84
2019-04-16 06:00:00 2.4 13 Nordeste 30 Nordeste 0 847.9 0.8 84
2019-04-16 05:00:00 2.7 22 Nordeste 29 Nordeste 0 847.4 0.4 84
2019-04-16 04:00:00 3 19 Nordeste 36 Nordeste 0 847.9 1.2 84
2019-04-16 03:00:00 3.8 24 Nordeste 49 Nordeste 0 847.1 0.3 84
2019-04-16 02:00:00 3.6 29 Nordeste 55 Nordeste 0 847 1.1 84
2019-04-16 01:00:00 3.8 36 Nordeste 56 Nordeste 0 846.7 1.2 84
2019-04-16 00:00:00 4.1 33 Nordeste 56 Nordeste 0 846.8 1.5 84
2019-04-15 23:00:00 3.8 36 Nordeste 53 Nordeste 0 845.9 0.6 84
2019-04-15 22:00:00 3.6 33 Nordeste 50 Nordeste 0.1 845.5 0.9 83
2019-04-15 21:00:00 4.7 28 Nordeste 45 Nordeste 0 845.3 1.6 69
2019-04-15 20:00:00 5.5 31 Nordeste 53 Nordeste 0 845.3 1.6 67
2019-04-15 19:00:00 7.8 35 Nordeste 57 Nordeste 0 844.6 0.6 54
2019-04-15 18:00:00 13.8 22 Norte 43 Norte 0 843.7 -0.7 26
2019-04-15 17:00:00 14.7 13 Norte 39 Norte 0 843.7 -0.3 30
2019-04-15 16:00:00 14.5 12 Este 25 Este 0 844 -0.6 35
2019-04-15 15:00:00 13 13 Sur 40 Oeste 0 844.4 -1 47
2019-04-15 14:00:00 12.7 19 Sur 40 Sur 0 844 -1.4 57
2019-04-15 13:00:00 8.9 14 Sudeste 27 Sur 0 844.6 -0.2 80
2019-04-15 12:00:00 8.2 17 Sur 29 Sur 0 845.4 0 83
2019-04-15 11:00:00 8.5 15 Sudoeste 31 Sudoeste 0 845.4 -0.5 80
2019-04-15 10:00:00 8.6 16 Sur 30 Sur 0 844.8 -0.7 76
2019-04-15 09:00:00 8.4 17 Sur 24 Sudoeste 0 845.4 -0.2 76
2019-04-15 08:00:00 8.1 9 Sur 20 Sur 0 845.9 -0.1 76
2019-04-15 07:00:00 7.6 13 Sur 24 Sur 0 845.5 -1 77
2019-04-15 06:00:00 7.5 16 Sur 25 Sudeste 0 845.6 -1.4 76
2019-04-15 05:00:00 8.1 17 Sur 29 Sur 0 846 -1.2 74
2019-04-15 04:00:00 8.4 19 Sur 28 Sur 0 846.5 -1.6 70
2019-04-15 03:00:00 9.3 16 Sur 25 Sur 0 847 -1.3 60
2019-04-15 02:00:00 9.8 13 Este 22 Este 0 847.2 -1 58
2019-04-15 01:00:00 9.9 8 Este 12 Este 0 848.1 -0.2 58
2019-04-15 00:00:00 10.7 7 Este 12 Este 0 848.3 0.1 53
2019-04-14 23:00:00 10.4 8 Noroeste 13 Noroeste 0 848.2 0.2 56
2019-04-14 22:00:00 9.7 10 Norte 19 Norte 0 848.3 0.5 59
2019-04-14 21:00:00 10.2 14 Norte 23 Nordeste 0 848.2 0.5 53
2019-04-14 20:00:00 12.7 15 Nordeste 29 Nordeste 0 848 -0.1 44
2019-04-14 19:00:00 13.9 21 Nordeste 32 Nordeste 0 847.8 -0.8 40
2019-04-14 18:00:00 14.3 18 Nordeste 33 Nordeste 0 847.7 -1.1 39
2019-04-14 17:00:00 14.8 22 Nordeste 34 Nordeste 0 848.1 -0.7 39
2019-04-14 16:00:00 13.6 20 Nordeste 30 Nordeste 0 848.6 -0.4 40
2019-04-14 15:00:00 13.8 19 Nordeste 32 Nordeste 0 848.8 -0.3 41
2019-04-14 14:00:00 12 18 Nordeste 33 Nordeste 0 848.8 -0.1 45
2019-04-14 13:00:00 10.4 16 Nordeste 30 Nordeste 0 849 0.3 55
2019-04-14 12:00:00 9.8 19 Nordeste 31 Nordeste 0 849.1 0.6 59
2019-04-14 11:00:00 7.5 17 Nordeste 24 Nordeste 0 848.9 0.4 83
2019-04-14 10:00:00 7 17 Nordeste 30 Nordeste 0 848.7 0.6 83
2019-04-14 09:00:00 6.4 23 Nordeste 35 Nordeste 0 848.5 0.3 84
2019-04-14 08:00:00 6 26 Nordeste 35 Nordeste 0 848.5 -0.2 84
2019-04-14 07:00:00 5.9 25 Nordeste 34 Nordeste 0 848.1 -0.7 83
2019-04-14 06:00:00 5.8 23 Nordeste 36 Nordeste 0 848.2 -0.7 80
2019-04-14 05:00:00 5.8 28 Nordeste 45 Nordeste 0 848.7 -0.6 76
2019-04-14 04:00:00 5.8 32 Nordeste 49 Nordeste 0 848.8 -0.7 67
2019-04-14 03:00:00 5.5 32 Nordeste 41 Nordeste 0 848.9 -0.7 64
2019-04-14 02:00:00 5.6 27 Nordeste 41 Nordeste 0 849.3 -0.3 57
2019-04-14 01:00:00 5.6 25 Nordeste 34 Nordeste 0 849.5 0.1 38
2019-04-14 00:00:00 6.9 22 Nordeste 32 Norte 0 849.6 0.5 24
2019-04-13 23:00:00 6.2 19 Nordeste 28 Nordeste 0 849.6 0.7 23
2019-04-13 22:00:00 6.7 16 Nordeste 21 Norte 0 849.4 0.7 22
2019-04-13 21:00:00 8.1 15 Nordeste 30 Nordeste 0 849.1 0.3 19
2019-04-13 20:00:00 11.8 15 Nordeste 27 Nordeste 0 848.9 0.2 14
2019-04-13 19:00:00 13.1 17 Nordeste 30 Nordeste 0 848.7 -0.4 14
2019-04-13 18:00:00 13.1 15 Nordeste 28 Nordeste 0 848.8 -0.3 14
2019-04-13 17:00:00 13.5 13 Nordeste 23 Norte 0 848.7 -0.5 18
2019-04-13 16:00:00 13.2 0 Calma 20 Sudoeste 0 849.1 -0.3 19
2019-04-13 15:00:00 12.3 8 Sur 22 Sudoeste 0 849.1 -0.5 17
2019-04-13 14:00:00 11.1 5 Sur 23 Sudeste 0 849.2 -0.3 17
2019-04-13 13:00:00 9.8 7 Nordeste 19 Nordeste 0 849.4 0.2 24
2019-04-13 12:00:00 8 13 Norte 28 Nordeste 0 849.6 0.7 29
2019-04-13 11:00:00 6.4 17 Nordeste 24 Nordeste 0 849.5 0.9 32
2019-04-13 10:00:00 4.7 17 Nordeste 24 Nordeste 0 849.2 1.1 35
2019-04-13 09:00:00 2.9 17 Norte 26 Norte 0 848.9 1 39
2019-04-13 08:00:00 1.6 17 Norte 26 Norte 0 848.6 0.7 42
2019-04-13 07:00:00 1.7 17 Nordeste 29 Norte 0 848.1 0.2 43
2019-04-13 06:00:00 1.7 15 Nordeste 22 Norte 0 847.9 -0.6 45
2019-04-13 05:00:00 1.2 14 Norte 23 Norte 0 847.9 -0.9 46
2019-04-13 04:00:00 1.8 15 Nordeste 27 Nordeste 0 847.9 -0.7 43
2019-04-13 03:00:00 2.1 18 Nordeste 31 Nordeste 0 848.5 0.1 43
2019-04-13 02:00:00 3.1 20 Norte 32 Norte 0 848.8 0.1 42
2019-04-13 01:00:00 3 16 Norte 34 Nordeste 0 848.6 0.5 46
2019-04-13 00:00:00 1.9 23 Nordeste 33 Nordeste 0 848.4 0.7 48
2019-04-12 23:00:00 2.8 18 Nordeste 33 Norte 0 848.7 1.3 45
2019-04-12 22:00:00 4.1 24 Nordeste 38 Nordeste 0 848.1 0.2 41
2019-04-12 21:00:00 4.6 23 Nordeste 38 Norte 0 847.7 0 39
2019-04-12 20:00:00 6.9 24 Nordeste 38 Nordeste 0 847.4 -0.3 33
2019-04-12 19:00:00 7.3 22 Nordeste 41 Nordeste 0 847.9 0 30
2019-04-12 18:00:00 8.5 22 Nordeste 36 Norte 0 847.7 -0.2 31
2019-04-12 17:00:00 7.4 19 Norte 38 Nordeste 0 847.7 -0.2 35
2019-04-12 16:00:00 7.6 26 Norte 49 Nordeste 0 847.9 -0.2 37
2019-04-12 15:00:00 7.2 28 Norte 50 Nordeste 0 847.9 -0.2 39
2019-04-12 14:00:00 5.8 35 Nordeste 55 Norte 0 847.9 0 40
2019-04-12 13:00:00 4.9 28 Norte 50 Nordeste 0 848.1 0.6 43
2019-04-12 12:00:00 4.2 31 Nordeste 48 Nordeste 0 848.1 0.6 53
2019-04-12 11:00:00 2.8 24 Norte 40 Nordeste 0 847.9 0.4 58
2019-04-12 10:00:00 2.1 24 Norte 36 Norte 0 847.5 0 60
2019-04-12 09:00:00 0.9 24 Norte 37 Norte 0 847.5 0.3 64
2019-04-12 08:00:00 -0.8 19 Nordeste 31 Norte 0 847.5 0.2 74
2019-04-12 07:00:00 -1 22 Norte 35 Norte 0 847.5 0 75
2019-04-12 06:00:00 -1.5 24 Nordeste 32 Norte 0 847.2 -0.9 77
2019-04-12 05:00:00 0.7 20 Nordeste 28 Nordeste 0 847.3 -1.1 61
2019-04-12 04:00:00 0.5 16 Norte 28 Norte 0 847.5 -0.8 62
2019-04-12 03:00:00 1.7 13 Norte 24 Norte 0 848.1 -0.5 53
2019-04-12 02:00:00 0.7 14 Norte 24 Nordeste 0 848.4 0 60
2019-04-12 01:00:00 0 14 Nordeste 22 Nordeste 0 848.3 0 58
2019-04-12 00:00:00 1.9 6 Este 22 Nordeste 0 848.6 0.7 50
2019-04-11 23:00:00 0.4 9 Nordeste 30 Nordeste 0 848.4 0.6 52
2019-04-11 22:00:00 1.7 15 Norte 29 Nordeste 0 848.3 0.7 52
2019-04-11 21:00:00 1.8 15 Nordeste 26 Nordeste 0 847.9 0.5 50
2019-04-11 20:00:00 2.7 15 Nordeste 28 Nordeste 0 847.8 0 46
2019-04-11 19:00:00 4.1 19 Nordeste 39 Nordeste 0 847.6 -0.4 42
2019-04-11 18:00:00 5.7 21 Nordeste 35 Nordeste 0 847.4 -0.4 41
2019-04-11 17:00:00 7.2 16 Nordeste 39 Nordeste 0 847.8 -0.3 41
2019-04-11 16:00:00 5 18 Nordeste 39 Nordeste 0 848 -0.2 41
2019-04-11 15:00:00 5.2 22 Nordeste 42 Nordeste 0 847.8 -0.3 42
2019-04-11 14:00:00 4.9 18 Nordeste 31 Norte 0 848.1 0.5 44
2019-04-11 13:00:00 3.7 9 Nordeste 24 Nordeste 0 848.2 0.8 45
2019-04-11 12:00:00 1.8 14 Nordeste 33 Nordeste 0 848.1 0.9 83
2019-04-11 11:00:00 0 21 Nordeste 44 Este 0 847.6 0.8 83
2019-04-11 10:00:00 -1.2 29 Este 44 Este 0 847.4 1 83
2019-04-11 09:00:00 -1.5 30 Este 42 Este 0 847.2 0.8 83
2019-04-11 08:00:00 -1.4 27 Este 44 Nordeste 0 846.8 0.7 83
2019-04-11 07:00:00 -1 28 Nordeste 45 Nordeste 0 846.4 0.3 84
2019-04-11 06:00:00 -1 28 Nordeste 43 Nordeste 0 846.4 0.2 84
2019-04-11 05:00:00 -0.8 33 Nordeste 50 Nordeste 0 846.1 -0.1 84
2019-04-11 04:00:00 -0.2 29 Nordeste 41 Nordeste 0 846.1 -0.2 84
2019-04-11 03:00:00 0.1 28 Nordeste 42 Nordeste 0 846.2 -0.3 84
2019-04-11 02:00:00 0.4 26 Nordeste 46 Nordeste 0 846.2 -0.4 84
2019-04-11 01:00:00 0.5 26 Nordeste 40 Nordeste 0 846.3 0.3 84
2019-04-11 00:00:00 0.8 21 Nordeste 39 Nordeste 0.2 846.5 2.3 84
2019-04-10 23:00:00 0.9 13 Nordeste 23 Nordeste 0 846.6 2.6 84
2019-04-10 22:00:00 0.9 14 Nordeste 47 Nordeste 0 846 2.1 84
2019-04-10 21:00:00 1.2 28 Nordeste 42 Nordeste 0 844.2 0.9 83
2019-04-10 20:00:00 1.7 25 Nordeste 38 Nordeste 0 844 1 80
2019-04-10 19:00:00 1.7 23 Nordeste 37 Nordeste 0.1 843.9 0.8 78
2019-04-10 18:00:00 1.6 23 Nordeste 54 Nordeste 0 843.3 0.5 81
2019-04-10 17:00:00 3.2 25 Nordeste 47 Nordeste 0 843 0.2 66
2019-04-10 16:00:00 2.3 26 Nordeste 53 Nordeste 0 843.1 0.4 84
2019-04-10 15:00:00 1.4 33 Nordeste 53 Nordeste 0.1 842.8 -0.1 83
2019-04-10 14:00:00 0 33 Nordeste 57 Nordeste 0.1 842.8 0 84
2019-04-10 13:00:00 -0.6 39 Nordeste 56 Nordeste 0.1 842.7 0.6 84
2019-04-10 12:00:00 -0.7 40 Este 58 Este 0.1 842.9 0.7 84
2019-04-10 11:00:00 -1 42 Este 73 Este 0.3 842.8 0.9 84
2019-04-10 10:00:00 -0.7 46 Este 72 Este 0 842.1 0.9 84
2019-04-10 09:00:00 -0.4 40 Este 65 Este 0 842.2 1.4 84
2019-04-10 08:00:00 -0.5 43 Este 74 Este 0 841.9 1 84
2019-04-10 07:00:00 -0.7 48 Nordeste 74 Este 0 841.2 0.4 84
2019-04-10 06:00:00 -0.7 51 Nordeste 76 Nordeste 0 840.8 0 84
2019-04-10 05:00:00 -0.7 53 Nordeste 80 Nordeste 0 840.9 -0.1 84
2019-04-10 04:00:00 -0.5 55 Nordeste 82 Nordeste 0 840.8 -0.5 84
2019-04-10 03:00:00 -0.4 52 Nordeste 81 Nordeste 0 840.8 -0.7 84
2019-04-10 02:00:00 -0.2 54 Nordeste 82 Nordeste 0 841 -0.9 84
2019-04-10 01:00:00 0.3 49 Nordeste 74 Nordeste 0 841.3 -0.2 84
2019-04-10 00:00:00 0.4 49 Nordeste 68 Nordeste 0.1 841.5 0.4 84
2019-04-09 23:00:00 0.6 47 Nordeste 71 Nordeste 0 841.9 0.9 83
2019-04-09 22:00:00 0.9 41 Nordeste 66 Nordeste 0 841.5 0.9 74
2019-04-09 21:00:00 1.2 42 Nordeste 66 Nordeste 0 841.1 0.9 70
2019-04-09 20:00:00 0.8 43 Nordeste 67 Norte 0 841 1 73
2019-04-09 19:00:00 2.7 45 Nordeste 73 Nordeste 0 840.6 0.4 48
2019-04-09 18:00:00 4.1 48 Nordeste 78 Nordeste 0 840.2 -0.5 50
2019-04-09 17:00:00 2.2 46 Nordeste 69 Nordeste 0.1 840 -1.1 84
2019-04-09 16:00:00 0.6 41 Nordeste 69 Nordeste 0 840.2 -1.6 84
2019-04-09 15:00:00 -0.6 45 Nordeste 76 Nordeste 0.1 840.7 -1.5 84
2019-04-09 14:00:00 -0.7 39 Nordeste 62 Nordeste 0.5 841.1 -1.1 83
2019-04-09 13:00:00 1.7 7 Nordeste 22 Norte 0 841.8 -0.6 72
2019-04-09 12:00:00 1.2 14 Nordeste 24 Nordeste 0 842.2 -0.2 76
2019-04-09 11:00:00 0.6 0 Calma 9 Este 0 842.2 0.1 84
2019-04-09 10:00:00 -0.3 8 Este 15 Este 0 842.4 0.3 84
2019-04-09 09:00:00 -0.8 0 Calma -- -- 0 842.4 0.5 84
2019-04-09 08:00:00 -1.3 0 Calma 12 Este 0 842.1 0 84
2019-04-09 07:00:00 -1.4 9 Este 16 Este 0 842.1 -0.4 84
2019-04-09 06:00:00 -1.2 13 Este 27 Este 0 841.9 -0.7 84
2019-04-09 05:00:00 -0.9 17 Este 27 Este 0 842.1 -0.5 84
2019-04-09 04:00:00 -0.5 18 Este 28 Este 0 842.5 -0.1 84
2019-04-09 03:00:00 -0.3 20 Este 32 Este 0 842.6 0.4 84
2019-04-09 02:00:00 -0.5 26 Este 38 Este 0 842.6 0 84
2019-04-09 01:00:00 -0.5 28 Este 39 Este 0 842.6 0 84
2019-04-09 00:00:00 -0.7 28 Este 36 Nordeste 0 842.2 0.2 84
2019-04-08 23:00:00 -0.5 25 Nordeste 44 Nordeste 0.2 842.6 0.6 84
2019-04-08 22:00:00 -0.1 36 Nordeste 55 Nordeste 0.7 842.6 0.6 84
2019-04-08 21:00:00 1.6 23 Nordeste 54 Norte 0.4 842 -0.1 77
2019-04-08 20:00:00 3 24 Nordeste 42 Norte 0.1 842 -0.3 59
2019-04-08 19:00:00 3.9 11 Nordeste 28 Nordeste 0.3 842 -0.4 67
2019-04-08 18:00:00 5 13 Nordeste 32 Norte 0 842.1 -0.7 55
2019-04-08 17:00:00 7 19 Nordeste 32 Nordeste 0 842.3 -0.7 46
2019-04-08 16:00:00 7.3 20 Nordeste 35 Nordeste 0 842.4 -0.7 49
2019-04-08 15:00:00 4.7 21 Nordeste 32 Nordeste 0 842.8 -0.3 80
2019-04-08 14:00:00 4.2 17 Nordeste 31 Nordeste 0 843 0.4 83
2019-04-08 13:00:00 2.3 19 Nordeste 32 Nordeste 0 843.1 0.8 84
2019-04-08 12:00:00 2.1 20 Nordeste 37 Norte 0 843.1 0.6 84
2019-04-08 11:00:00 2 23 Nordeste 44 Nordeste 0.4 842.6 0.4 84
2019-04-08 10:00:00 2.5 29 Nordeste 49 Nordeste 0.5 842.3 0.6 84
2019-04-08 09:00:00 2.3 15 Nordeste 26 Nordeste 0 842.5 0.6 84
2019-04-08 08:00:00 2.2 3 Nordeste 16 Nordeste 0 842.2 0.2 84
2019-04-08 07:00:00 2.1 11 Nordeste 24 Nordeste 0.3 841.7 -0.5 84
2019-04-08 06:00:00 1.6 6 Nordeste 12 Nordeste 0.3 841.9 -0.3 84
2019-04-08 05:00:00 1.5 7 Nordeste 12 Nordeste 0.1 842 -0.6 84
2019-04-08 04:00:00 1.4 6 Nordeste 19 Oeste 0 842.2 -0.5 84
2019-04-08 03:00:00 1.1 9 Sur 26 Sur 0 842.2 -0.7 84
2019-04-08 02:00:00 1.1 10 Sudeste 24 Sudeste 0 842.6 -0.4 84
2019-04-08 01:00:00 1 8 Este 23 Este 0 842.7 -0.1 84
2019-04-08 00:00:00 0.5 9 Este 15 Este 0 842.9 0.4 84
2019-04-07 23:00:00 0.3 7 Este 16 Sudeste 0.1 843 0.6 84
2019-04-07 22:00:00 -0.1 9 Este 21 Sur 0.2 842.8 0.7 84
2019-04-07 21:00:00 -0.3 13 Oeste 24 Oeste 0.4 842.5 0.5 84
2019-04-07 20:00:00 0 12 Sudoeste 20 Sudoeste 0.9 842.4 0.4 84
2019-04-07 19:00:00 0.3 6 Sudeste 16 Nordeste 0.9 842.1 0.6 82
2019-04-07 18:00:00 0.5 9 Nordeste 19 Norte 0.8 842 0.6 80
2019-04-07 17:00:00 1.1 13 Norte 24 Nordeste 0 842 0.8 66
2019-04-07 16:00:00 3.6 9 Nordeste 30 Nordeste 0 841.5 0.8 46
2019-04-07 15:00:00 2.7 18 Nordeste 35 Norte 0 841.4 1.4 84
2019-04-07 14:00:00 1.8 22 Nordeste 38 Nordeste 0 841.2 2.1 84
2019-04-07 13:00:00 0.8 26 Norte 54 Este 0 840.7 2.4 83
2019-04-07 12:00:00 -1.2 36 Este 58 Este 0 840 2 83
2019-04-07 11:00:00 -1.6 40 Este 66 Este 0 839.1 1.7 83
2019-04-07 10:00:00 -2 42 Este 71 Este 0 838.3 1.4 83
2019-04-07 09:00:00 -2.4 40 Este 57 Este 0 838 2 83
2019-04-07 08:00:00 -2.6 35 Este 57 Este 0 837.4 2.1 83
2019-04-07 07:00:00 -2.9 41 Este 62 Este 0 836.9 2.2 83
2019-04-07 06:00:00 -2.4 42 Este 73 Este 0 836 1 83
2019-04-07 05:00:00 -2.4 45 Este 71 Nordeste 0 835.3 0.3 83
2019-04-07 04:00:00 -2.4 45 Este 75 Este 0.2 834.7 0.2 83
2019-04-07 03:00:00 -2.3 34 Nordeste 53 Nordeste 0.1 835 1 83
2019-04-07 02:00:00 -2 39 Nordeste 65 Nordeste 0 835 1.8 83
2019-04-07 01:00:00 -2 44 Nordeste 70 Nordeste 0 834.5 2.5 83
2019-04-07 00:00:00 -2 52 Nordeste 81 Nordeste 0 834 1.6 83
2019-04-06 23:00:00 -1.7 54 Nordeste 83 Nordeste 0 833.2 0.9 83
2019-04-06 22:00:00 -1.6 58 Nordeste 82 Nordeste 0 832 -0.1 79
2019-04-06 21:00:00 -0.9 50 Nordeste 77 Nordeste 0 832.4 0.6 77
2019-04-06 20:00:00 -1 50 Nordeste 76 Nordeste 0 832.3 0.4 76
2019-04-06 19:00:00 -0.9 42 Nordeste 74 Nordeste 0 832.1 0.5 83
2019-04-06 18:00:00 -1.4 39 Nordeste 73 Nordeste 0.1 831.8 -0.2 83
2019-04-06 17:00:00 0.3 34 Norte 70 Nordeste 0 831.9 -0.3 74
2019-04-06 16:00:00 0.2 37 Nordeste 64 Nordeste 0 831.6 -0.5 72
2019-04-06 15:00:00 -0.5 32 Norte 67 Noroeste 0 832 -0.9 81
2019-04-06 14:00:00 -1 27 Norte 66 Noroeste 0 832.2 -0.4 84
2019-04-06 13:00:00 -0.7 37 Norte 65 Noroeste 0 832.1 -0.2 83
2019-04-06 12:00:00 -0.6 21 Este 43 Nordeste 0 832.9 0.7 83
2019-04-06 11:00:00 -1.2 5 Sudeste 18 Este 0 832.6 0.6 83
2019-04-06 10:00:00 -2.1 5 Sudeste 18 Este 0.1 832.3 0.9 83
2019-04-06 09:00:00 -2.8 8 Este 23 Este 0 832.2 1.2 82
2019-04-06 08:00:00 -3.3 14 Este 29 Este 0 832 1.1 82
2019-04-06 07:00:00 -3.6 22 Este 42 Este 0 831.4 0.3 82
2019-04-06 06:00:00 -3.3 27 Este 41 Este 0 831 0 82
2019-04-06 05:00:00 -3.4 27 Este 40 Este 0 830.9 -0.7 83
2019-04-06 04:00:00 -3 30 Este 47 Este 0 831.1 -0.6 83
2019-04-06 03:00:00 -2.8 31 Este 49 Este 0 831 -0.4 83
2019-04-06 02:00:00 -2.5 31 Este 45 Este 0 831.6 0.3 83
2019-04-06 01:00:00 -2.3 21 Este 32 Este 0 831.7 0.6 83
2019-04-06 00:00:00 -2.5 17 Este 29 Este 0 831.4 1.4 83
2019-04-05 23:00:00 -2.4 21 Este 30 Este 0 831.3 2 83
2019-04-05 22:00:00 -2.4 7 Este 23 Este 0 831.1 2.2 83
2019-04-05 21:00:00 -2.4 18 Este 32 Nordeste 0 830 1 83
2019-04-05 20:00:00 -1.8 22 Este 33 Este 0.1 829.3 0.3 84
2019-04-05 19:00:00 -2.5 0 Calma -- -- 0.1 828.9 0 83
2019-04-05 18:00:00 -2.5 0 Calma -- -- 0.7 829 -0.2 83
2019-04-05 17:00:00 -1.6 0 Calma 26 Nordeste 0.1 829 -0.5 83
2019-04-05 16:00:00 -1.4 13 Norte 19 Nordeste 0 828.9 -0.7 83
2019-04-05 15:00:00 -1.7 12 Sudeste 28 Este 0.6 829.2 -0.2 84
2019-04-05 14:00:00 -2.9 21 Este 40 Este 2.7 829.5 0 83
2019-04-05 13:00:00 -0.7 8 Norte 27 Noroeste 0.8 829.6 0.3 84
2019-04-05 12:00:00 -0.4 15 Noroeste 28 Noroeste 0.2 829.4 0.2 84
2019-04-05 11:00:00 -0.6 14 Noroeste 22 Noroeste 0.1 829.5 0.2 84
2019-04-05 10:00:00 -1 16 Noroeste 30 Noroeste 0.1 829.3 -0.4 84
2019-04-05 09:00:00 -1.4 19 Noroeste 29 Noroeste 0.4 829.2 -0.4 84
2019-04-05 08:00:00 -1.2 16 Sudoeste 28 Este 0.1 829.3 -0.3 84
2019-04-05 07:00:00 -1.3 9 Este 22 Este 0 829.7 0 84
2019-04-05 06:00:00 -1.5 12 Este 25 Este 0 829.6 -0.8 84
2019-04-05 05:00:00 -1.4 16 Este 24 Este 0.5 829.6 -1.1 84
2019-04-05 04:00:00 -1 15 Este 25 Este 0 829.7 -1.8 84
2019-04-05 03:00:00 -1.2 11 Este 31 Este 0.1 830.4 -1.5 84
2019-04-05 02:00:00 -1.3 13 Este 28 Este 0.1 830.7 -1.2 80
2019-04-05 01:00:00 -0.6 5 Este 26 Norte 0.2 831.5 -0.8 73
2019-04-05 00:00:00 1.7 13 Norte 32 Noroeste 0 831.9 -0.3 36
2019-04-04 23:00:00 2.1 9 Norte 17 Nordeste 0 831.9 -0.5 29
2019-04-04 22:00:00 1.9 12 Norte 25 Noroeste 0 832.3 -0.1 30
2019-04-04 21:00:00 3.4 16 Noroeste 25 Noroeste 0 832.2 -0.4 26
2019-04-04 20:00:00 4 12 Noroeste 20 Noroeste 0 832.4 -0.5 25
2019-04-04 19:00:00 5.2 10 Noroeste 19 Noroeste 0 832.4 -0.9 23
2019-04-04 18:00:00 5.4 5 Noroeste 28 Noroeste 0 832.6 -1.5 22
2019-04-04 17:00:00 5.1 14 Noroeste 33 Norte 0 832.9 -1.6 21
2019-04-04 16:00:00 6.2 6 Norte 30 Nordeste 0 833.3 -1.7 20
2019-04-04 15:00:00 4.9 12 Nordeste 28 Nordeste 0 834.1 -0.8 24
2019-04-04 14:00:00 4 15 Nordeste 27 Nordeste 0 834.5 -0.1 25
2019-04-04 13:00:00 1.9 16 Nordeste 34 Nordeste 0 835 -0.1 32
2019-04-04 12:00:00 -0.3 23 Norte 39 Norte 0 834.9 0.3 41
2019-04-04 11:00:00 -1.9 26 Nordeste 39 Nordeste 0 834.6 0.7 47
2019-04-04 10:00:00 -4 13 Norte 22 Nordeste 0 835.1 1.5 67
2019-04-04 09:00:00 -6 14 Nordeste 24 Nordeste 0 834.6 1.1 80
2019-04-04 08:00:00 -6 19 Nordeste 32 Nordeste 0 833.9 0.3 83
2019-04-04 07:00:00 -6.1 25 Nordeste 41 Nordeste 0 833.6 -0.1 83
2019-04-04 06:00:00 -6.1 27 Nordeste 46 Nordeste 0 833.5 -0.6 81
2019-04-04 05:00:00 -5.7 33 Nordeste 48 Nordeste 0 833.6 -0.8 78
2019-04-04 04:00:00 -5.9 31 Nordeste 48 Nordeste 0 833.7 -0.7 76
2019-04-04 03:00:00 -5.4 33 Nordeste 54 Norte 0 834.1 -0.3 71
2019-04-04 02:00:00 -4.4 32 Nordeste 53 Nordeste 0 834.4 -0.2 65
2019-04-04 01:00:00 -3 39 Nordeste 63 Nordeste 0 834.4 -0.2 52
2019-04-04 00:00:00 -1.6 40 Nordeste 63 Nordeste 0 834.4 0 43
2019-04-03 23:00:00 -0.5 39 Nordeste 62 Nordeste 0 834.6 0.3 41
2019-04-03 22:00:00 0.2 33 Nordeste 52 Nordeste 0 834.6 0.2 40
2019-04-03 21:00:00 0.7 32 Nordeste 58 Norte 0 834.4 -0.3 35
2019-04-03 20:00:00 1.9 37 Nordeste 64 Nordeste 0 834.3 -0.3 29
2019-04-03 19:00:00 3.4 42 Nordeste 68 Nordeste 0 834.4 -0.5 28
2019-04-03 18:00:00 3.6 39 Nordeste 64 Nordeste 0 834.7 -0.5 32
2019-04-03 17:00:00 4.4 46 Nordeste 74 Nordeste 0 834.6 -1.5 29
2019-04-03 16:00:00 4.2 45 Nordeste 76 Nordeste 0 834.9 -1.5 34
2019-04-03 15:00:00 1.7 48 Nordeste 72 Nordeste 0 835.2 -1.3 48
2019-04-03 14:00:00 0.5 44 Nordeste 66 Nordeste 0 836.1 -1.4 70
2019-04-03 13:00:00 0.3 42 Nordeste 66 Nordeste 0 836.4 -1.7 70
2019-04-03 12:00:00 0 39 Nordeste 58 Nordeste 0 836.5 -1.9 77
2019-04-03 11:00:00 0.1 34 Nordeste 53 Nordeste 0 837.5 -1.3 81
2019-04-03 10:00:00 0 34 Nordeste 49 Nordeste 0 838.1 -0.9 84
2019-04-03 09:00:00 0.3 32 Nordeste 48 Nordeste 0 838.4 -1.2 80
2019-04-03 08:00:00 -0.7 27 Norte 37 Norte 0 838.8 -1.6 78
2019-04-03 07:00:00 -0.7 28 Norte 40 Nordeste 0 839 -2.4 72
2019-04-03 06:00:00 -0.5 27 Nordeste 39 Norte 0 839.6 -2.4 66
2019-04-03 05:00:00 -0.2 24 Nordeste 33 Nordeste 0 840.4 -2.1 62
2019-04-03 04:00:00 0.3 26 Norte 38 Nordeste 0 841.4 -1.6 57
2019-04-03 03:00:00 1.2 28 Norte 42 Norte 0 842 -1.5 50
2019-04-03 02:00:00 1.9 29 Norte 41 Nordeste 0 842.5 -1.3 45
2019-04-03 01:00:00 2.7 27 Norte 39 Nordeste 0 843 -0.9 40
2019-04-03 00:00:00 3.8 24 Nordeste 38 Norte 0 843.5 -0.3 40
2019-04-02 23:00:00 4.7 24 Norte 39 Norte 0 843.8 -0.2 43
2019-04-02 22:00:00 5.4 20 Nordeste 28 Norte 0 843.9 0.1 42
2019-04-02 21:00:00 6.6 11 Norte 18 Nordeste 0 843.8 -0.3 47
2019-04-02 20:00:00 7.7 8 Nordeste 21 Nordeste 0 844 -0.6 45
2019-04-02 19:00:00 8.7 3 Nordeste 20 Nordeste 0 843.8 -0.9 44
2019-04-02 18:00:00 9.1 12 Nordeste 21 Norte 0 844.1 -0.9 42
2019-04-02 17:00:00 6.6 3 Sudeste 27 Norte 0 844.6 -1.1 52
2019-04-02 16:00:00 7.2 13 Norte 28 Nordeste 0 844.7 -1.5 49
2019-04-02 15:00:00 9.1 18 Nordeste 32 Nordeste 0 845 -1.4 44
2019-04-02 14:00:00 7 13 Norte 24 Norte 0.1 845.7 -0.6 66
2019-04-02 13:00:00 5.2 18 Norte 30 Nordeste 0.4 846.2 0.3 77
2019-04-02 12:00:00 6.8 16 Nordeste 25 Nordeste 0 846.4 0.8 58
2019-04-02 11:00:00 5 17 Nordeste 22 Nordeste 0 846.3 1 73
2019-04-02 10:00:00 4.1 13 Nordeste 24 Nordeste 0 845.9 0.8 73
2019-04-02 09:00:00 3.1 18 Nordeste 24 Nordeste 0 845.6 0.6 76
2019-04-02 08:00:00 2.4 16 Nordeste 27 Nordeste 0 845.3 -0.2 77
2019-04-02 07:00:00 2.4 20 Nordeste 28 Nordeste 0 845.1 -0.6 76
2019-04-02 06:00:00 2.1 19 Nordeste 25 Nordeste 0 845 -0.9 83
2019-04-02 05:00:00 2.1 20 Nordeste 25 Nordeste 0 845.5 -0.4 81
2019-04-02 04:00:00 2.3 19 Nordeste 23 Nordeste 0 845.7 -0.5 82
2019-04-02 03:00:00 3 17 Nordeste 21 Este 0 845.9 0.1 80
2019-04-02 02:00:00 3.9 15 Nordeste 20 Nordeste 0 845.9 0.1 75
2019-04-02 01:00:00 4.5 8 Nordeste 11 Nordeste 0 846.2 0.9 66
2019-04-02 00:00:00 5.4 8 Nordeste 12 Nordeste 0 845.8 1 60
2019-04-01 23:00:00 5.5 8 Nordeste 9 Este 0 845.8 1.5 60
2019-04-01 22:00:00 5.3 6 Nordeste 8 Este 0 845.3 1.1 66
2019-04-01 21:00:00 4.8 3 Nordeste 13 Nordeste 0.2 844.8 0.9 66
2019-04-01 20:00:00 4 10 Nordeste 18 Este 0.3 844.3 0.4 79
2019-04-01 19:00:00 4.5 14 Nordeste 22 Este 0 844.2 0.2 71
2019-04-01 18:00:00 7.7 5 Nordeste 15 Nordeste 0 843.9 -0.4 49
2019-04-01 17:00:00 7.7 8 Nordeste 20 Nordeste 0 843.9 -0.6 51
2019-04-01 16:00:00 7.5 9 Nordeste 18 Nordeste 0 844 -0.7 53
2019-04-01 15:00:00 6.4 9 Nordeste 17 Nordeste 0 844.3 -0.3 62
2019-04-01 14:00:00 5.8 10 Nordeste 17 Nordeste 0 844.5 0.4 63
2019-04-01 13:00:00 5.6 6 Nordeste 14 Nordeste 0 844.7 1 72
2019-04-01 12:00:00 5 8 Nordeste 14 Nordeste 0 844.6 1.3 81
2019-04-01 11:00:00 4 4 Nordeste 12 Este 0 844.1 1.1 84
2019-04-01 10:00:00 3.7 7 Este 13 Este 0 843.7 0.8 84
2019-04-01 09:00:00 3.1 2 Este 10 Este 0 843.3 0.3 84
2019-04-01 08:00:00 2.4 5 Este 10 Sudeste 0 843 0.2 84
2019-04-01 07:00:00 2.6 5 Sur 10 Sur 0 842.9 -0.1 84
2019-04-01 06:00:00 2.4 8 Sudeste 14 Sur 0.1 843 -0.2 84
2019-04-01 05:00:00 2.4 10 Sur 15 Sur 0 842.8 -0.5 84
2019-04-01 04:00:00 2.4 9 Sur 18 Sur 0 843 -0.4 84
2019-04-01 03:00:00 2.4 12 Sur 20 Sur 0 843.2 -0.2 84
2019-04-01 02:00:00 2.2 15 Sur 26 Sudoeste 0.1 843.3 -0.1 84
2019-04-01 01:00:00 2.3 17 Sudoeste 28 Sur 0 843.4 0.5 84
2019-04-01 00:00:00 2.6 16 Sudoeste 27 Noroeste 0 843.4 0.6 84
2019-03-31 23:00:00 2.9 16 Oeste 27 Oeste 0 843.4 0.9 84
2019-03-31 22:00:00 3.2 18 Oeste 30 Noroeste 0 842.9 0.3 84
2019-03-31 21:00:00 3.4 13 Oeste 27 Sudoeste 0 842.8 0.4 84
2019-03-31 20:00:00 3.6 14 Sur 25 Sur 0.1 842.5 -0.2 85
2019-03-31 19:00:00 3.7 17 Sur 29 Sur 0 842.6 -0.3 82
2019-03-31 18:00:00 4.5 14 Sur 24 Sur 0 842.4 -1 77
2019-03-31 17:00:00 4.8 14 Sur 30 Sur 0 842.7 -1.2 72
2019-03-31 16:00:00 5.5 13 Sudeste 31 Sur 0 842.9 -1.4 63
2019-03-31 15:00:00 6 18 Noroeste 34 Noroeste 0 843.4 -0.8 54
2019-03-31 14:00:00 5.7 18 Noroeste 33 Oeste 0 843.9 -0.4 53
2019-03-31 13:00:00 5.7 20 Sur 32 Sudoeste 0 844.3 0 62
2019-03-31 12:00:00 4.8 14 Sur 31 Sudoeste 0 844.2 0.1 64
2019-03-31 11:00:00 5.4 18 Oeste 32 Sur 0 844.3 0.4 62
2019-03-31 10:00:00 3.1 18 Sur 28 Sudoeste 0 844.3 0.3 71
2019-03-31 09:00:00 2.7 19 Sur 31 Sur 0 844.1 -0.3 74
2019-03-31 08:00:00 2.5 22 Sudoeste 30 Sur 0 843.9 -1.1 70
2019-03-31 07:00:00 3.1 15 Sur 22 Sudoeste 0 844 -1.6 73
2019-03-31 06:00:00 3.2 14 Sur 21 Sudoeste 0 844.4 -1.7 74
2019-03-31 05:00:00 3.2 14 Sur 20 Sur 0 845 -1.6 70
2019-03-31 03:00:00 3.6 15 Sur 24 Sur 0 846.1 -1 55
2019-03-31 01:00:00 3.9 15 Sur 28 Sur 0 846.6 -0.7 41
2019-03-31 00:00:00 5.5 14 Sur 26 Sudoeste 0 846.8 -0.4 31
2019-03-30 23:00:00 5.6 9 Este 14 Este 0 847.1 0.2 31
2019-03-30 22:00:00 5.9 9 Este 15 Sudeste 0 847.3 0.3 32
2019-03-30 21:00:00 6.7 9 Sudeste 18 Sudoeste 0 847.2 0.7 30
2019-03-30 20:00:00 7.4 9 Sudoeste 18 Oeste 0 846.9 0.3 30
2019-03-30 19:00:00 8 8 Sudoeste 19 Sur 0 847 0.2 29
2019-03-30 18:00:00 9.4 9 Sur 24 Sur 0 846.5 -1.3 28
2019-03-30 17:00:00 11.4 9 Sudoeste 26 Este 0 846.6 -1.8 29
2019-03-30 16:00:00 10 10 Sudeste 25 Sur 0 846.8 -2.2 31
2019-03-30 15:00:00 9.7 13 Sur 26 Sur 0 847.8 -1.8 33
2019-03-30 14:00:00 9.3 8 Sur 26 Sur 0 848.4 -1.3 34
2019-03-30 13:00:00 9.3 9 Sur 26 Sur 0 849 -0.8 35
2019-03-30 12:00:00 7.6 15 Sur 26 Sur 0 849.6 -0.1 40
2019-03-30 11:00:00 6.5 10 Sur 22 Sur 0 849.7 0.1 42
2019-03-30 10:00:00 4.6 12 Sur 23 Sur 0 849.8 0.1 46
2019-03-30 09:00:00 3.1 14 Sur 25 Sur 0 849.7 0.2 50
2019-03-30 08:00:00 1.6 15 Sur 21 Sur 0 849.6 -0.3 55
2019-03-30 07:00:00 -0.5 16 Sur 24 Sur 0 849.7 -0.3 69
2019-03-30 06:00:00 -0.4 16 Sur 26 Sur 0 849.5 -0.8 70
2019-03-30 05:00:00 -0.5 16 Sur 23 Sur 0 849.9 -0.7 74
2019-03-30 04:00:00 -0.3 17 Sur 29 Sudoeste 0 850 -1 77
2019-03-30 03:00:00 0.2 19 Sur 31 Sudoeste 0 850.3 -0.8 74
2019-03-30 02:00:00 0.8 21 Sudoeste 38 Sudoeste 0 850.6 -0.7 71
2019-03-30 01:00:00 1.5 21 Sudoeste 35 Sur 0 851 -0.1 64
2019-03-30 00:00:00 2.6 20 Sur 30 Sudoeste 0 851.1 0.1 47
2019-03-29 23:00:00 3.5 16 Sur 27 Sur 0 851.3 0.6 44
2019-03-29 22:00:00 3.8 17 Sur 26 Sudoeste 0 851.1 0.7 42
2019-03-29 21:00:00 4.7 14 Sur 28 Sur 0 851 0.6 38
2019-03-29 20:00:00 5.4 10 Sudoeste 27 Sur 0 850.7 0.2 33
2019-03-29 19:00:00 7.2 15 Sur 32 Sudoeste 0 850.4 -0.5 29
2019-03-29 18:00:00 9 14 Sur 33 Sudoeste 0 850.4 -0.9 28
2019-03-29 17:00:00 9 14 Sudeste 31 Sur 0 850.5 -1.4 27
2019-03-29 16:00:00 9.2 18 Sur 39 Noroeste 0 850.9 -1.1 29
2019-03-29 15:00:00 9.3 17 Oeste 37 Oeste 0 851.3 -1.2 30
2019-03-29 14:00:00 8.4 23 Noroeste 43 Oeste 0 851.9 -0.8 31
2019-03-29 13:00:00 7.6 23 Noroeste 43 Oeste 0 852 -0.8 32
2019-03-29 12:00:00 7.2 23 Noroeste 46 Noroeste 0 852.5 -0.3 33
2019-03-29 11:00:00 6.6 24 Oeste 48 Oeste 0 852.7 0 34
2019-03-29 10:00:00 5.4 23 Sudoeste 40 Noroeste 0 852.8 0.2 35
2019-03-29 09:00:00 3.9 22 Sudoeste 40 Sur 0 852.8 0.1 39
2019-03-29 08:00:00 2.5 22 Sur 34 Sudoeste 0 852.7 0.1 41
2019-03-29 07:00:00 0.8 21 Sur 31 Sur 0 852.6 -0.2 42
2019-03-29 06:00:00 1.2 20 Sur 32 Sur 0 852.7 -0.6 40
2019-03-29 05:00:00 1.2 21 Sur 30 Sudoeste 0 852.6 -0.8 37
2019-03-29 04:00:00 1.7 17 Sur 25 Sur 0 852.8 -0.6 36
2019-03-29 03:00:00 1.9 14 Sur 34 Sur 0 853.3 -0.2 33
2019-03-29 02:00:00 3.4 19 Sur 29 Sudoeste 0 853.4 -0.2 30
2019-03-29 01:00:00 4.5 13 Sur 20 Sur 0 853.4 -0.4 27
2019-03-29 00:00:00 5.7 9 Sur 14 Sur 0 853.5 0 26
2019-03-28 23:00:00 6.3 7 Oeste 14 Sudoeste 0 853.6 0.4 25
2019-03-28 22:00:00 6.5 8 Sur 14 Sur 0 853.8 0.6 25
2019-03-28 21:00:00 6.6 8 Sur 19 Sudoeste 0 853.5 0.5 25
2019-03-28 20:00:00 6.9 11 Sudoeste 19 Sudoeste 0 853.2 0.1 26
2019-03-28 19:00:00 8.1 9 Sudeste 17 Sudeste 0 853.2 -0.3 25
2019-03-28 18:00:00 9.8 8 Sudeste 18 Sur 0 853 -1 23
2019-03-28 17:00:00 10.5 10 Sur 23 Sudoeste 0 853.1 -1.3 23
2019-03-28 16:00:00 10.6 9 Sudoeste 22 Sur 0 853.5 -1.1 24
2019-03-28 15:00:00 10.3 8 Sur 25 Sur 0 854 -0.8 25
2019-03-28 14:00:00 9.4 12 Sudeste 29 Sur 0 854.4 -0.6 25
2019-03-28 13:00:00 8.6 10 Sudeste 26 Sur 0 854.6 -0.1 26
2019-03-28 12:00:00 7.5 14 Sur 27 Sur 0 854.8 0 28
2019-03-28 11:00:00 6.9 12 Sur 27 Sur 0 855 0.3 29
2019-03-28 10:00:00 5.4 14 Sur 28 Sur 0 854.7 0.4 30
2019-03-28 09:00:00 4.2 14 Sur 24 Sur 0 854.8 0.7 32
2019-03-28 08:00:00 3 15 Sur 23 Sudoeste 0 854.7 0.9 33
2019-03-28 07:00:00 1 14 Sudoeste 22 Sur 0 854.3 0.6 33
2019-03-28 06:00:00 1.3 16 Sudoeste 25 Sur 0 854.1 0.4 33
2019-03-28 05:00:00 1.9 17 Sudoeste 23 Sudoeste 0 853.8 -0.2 31
2019-03-28 04:00:00 2.2 17 Sur 26 Sudoeste 0 853.7 -0.1 31
2019-03-28 03:00:00 2.8 20 Sudoeste 39 Noroeste 0 853.7 0.2 29
2019-03-28 02:00:00 3.8 21 Sudoeste 42 Oeste 0 854 0.7 27
2019-03-28 01:00:00 5.2 17 Sudoeste 30 Sur 0 853.8 0.7 26
2019-03-28 00:00:00 5.8 17 Sur 30 Sur 0 853.5 0.7 26
2019-03-27 23:00:00 6.3 14 Sudoeste 25 Sudoeste 0 853.3 0.9 26
2019-03-27 22:00:00 6.1 10 Sudeste 20 Este 0 853.1 0.9 28
2019-03-27 21:00:00 7.5 8 Sur 13 Sur 0 852.8 0.9 26
2019-03-27 20:00:00 7.8 6 Oeste 13 Sur 0 852.4 0.5 26
2019-03-27 19:00:00 9.3 7 Sudoeste 15 Sudoeste 0 852.2 0.4 26
2019-03-27 18:00:00 10.6 9 Este 14 Este 0 851.9 -0.4 27
2019-03-27 17:00:00 11.4 4 Sudeste 14 Oeste 0 851.9 -0.6 27
2019-03-27 16:00:00 11 8 Sudoeste 19 Sur 0 851.8 -1.1 28
2019-03-27 15:00:00 10.3 9 Sudoeste 26 Sudeste 0 852.3 -0.2 29
2019-03-27 14:00:00 9.9 10 Sur 24 Sur 0 852.5 -0.1 31
2019-03-27 13:00:00 7.7 11 Sur 26 Sudoeste 0 852.9 0.7 32
2019-03-27 12:00:00 7 14 Sudeste 26 Sur 0 852.5 0.5 35
2019-03-27 11:00:00 6 13 Sur 26 Sur 0 852.6 1.2 36
2019-03-27 10:00:00 3.6 16 Sudeste 24 Este 0 852.2 1.2 35
2019-03-27 09:00:00 2.8 14 Sudeste 24 Sur 0 852 1.4 29
2019-03-27 08:00:00 1.7 17 Sudoeste 25 Sudoeste 0 851.4 1 29
2019-03-27 07:00:00 -0.2 18 Sudoeste 26 Sudeste 0 851 0.5 29
2019-03-27 06:00:00 0 8 Nordeste 32 Oeste 0 850.6 0.2 27
2019-03-27 05:00:00 1.4 24 Oeste 35 Sudoeste 0 850.4 -0.3 23
2019-03-27 04:00:00 1.6 19 Oeste 32 Sudoeste 0 850.5 -0.2 22
2019-03-27 03:00:00 3.1 18 Oeste 31 Sur 0 850.4 0 19
2019-03-27 02:00:00 4.2 17 Oeste 40 Oeste 0 850.7 0.2 19
2019-03-27 01:00:00 4.9 25 Oeste 42 Oeste 0 850.7 0.7 19
2019-03-27 00:00:00 5.7 24 Oeste 39 Oeste 0 850.4 0.7 19
2019-03-26 23:00:00 6.1 16 Sur 39 Sudeste 0 850.5 1.6 18
2019-03-26 22:00:00 6.9 12 Sur 32 Sur 0 850 1.2 15
2019-03-26 21:00:00 7.1 12 Sudeste 33 Sur 0 849.7 1.1 19
2019-03-26 20:00:00 7.9 13 Sur 27 Sur 0 848.9 0.7 17
2019-03-26 19:00:00 9.6 13 Noroeste 36 Sur 0 848.8 0.1 16
2019-03-26 18:00:00 10.8 18 Sudoeste 41 Oeste 0 848.6 -0.3 18
2019-03-26 17:00:00 11.6 21 Oeste 41 Oeste 0 848.2 -0.6 18
2019-03-26 16:00:00 12.1 16 Oeste 36 Oeste 0 848.7 -0.1 21
2019-03-26 15:00:00 12.5 19 Noroeste 42 Noroeste 0 848.9 0 19
2019-03-26 14:00:00 12.4 22 Noroeste 43 Oeste 0 848.8 -0.2 21
2019-03-26 13:00:00 11 23 Oeste 41 Oeste 0 848.8 0 22
2019-03-26 12:00:00 9.9 24 Oeste 41 Oeste 0 848.9 0.6 25
2019-03-26 11:00:00 8.8 22 Oeste 41 Noroeste 0 849 0.8 25
2019-03-26 10:00:00 6.5 24 Oeste 43 Oeste 0 848.8 0.8 28
2019-03-26 09:00:00 5.2 24 Oeste 38 Oeste 0 848.3 0.4 29
2019-03-26 08:00:00 4.1 13 Sudoeste 29 Sur 0 848.2 0.2 31
2019-03-26 07:00:00 2.3 14 Sur 23 Sudeste 0 848 -0.1 35
2019-03-26 06:00:00 1.6 18 Este 25 Este 0 847.9 -0.8 39
2019-03-26 05:00:00 1.2 8 Nordeste 13 Nordeste 0 848 -1 53
2019-03-26 04:00:00 0.7 8 Nordeste 12 Nordeste 0 848.1 -1.3 60
2019-03-26 03:00:00 -0.9 11 Nordeste 14 Nordeste 0 848.7 -0.8 71
2019-03-26 02:00:00 -0.7 10 Nordeste 14 Nordeste 0 849 -0.5 71
2019-03-26 01:00:00 0 12 Nordeste 17 Nordeste 0 849.4 -0.1 63
2019-03-26 00:00:00 5.4 7 Este 14 Nordeste 0 849.5 0.1 40
2019-03-25 23:00:00 2.1 9 Noroeste 18 Nordeste 0 849.5 0.3 56
2019-03-25 22:00:00 3 14 Norte 26 Norte 0 849.5 0.4 49
2019-03-25 21:00:00 4.8 19 Nordeste 30 Norte 0 849.4 0.3 41
2019-03-25 20:00:00 6.2 15 Nordeste 30 Nordeste 0 849.2 -0.1 39
2019-03-25 19:00:00 9.7 18 Nordeste 30 Nordeste 0 849.1 -0.5 32
2019-03-25 18:00:00 11.5 14 Nordeste 35 Nordeste 0 849.1 -1.1 29
2019-03-25 17:00:00 12.2 16 Nordeste 29 Nordeste 0 849.3 -1.5 28
2019-03-25 16:00:00 12.9 19 Nordeste 37 Nordeste 0 849.6 -1.7 28
2019-03-25 15:00:00 11.4 15 Nordeste 31 Nordeste 0 850.2 -1.6 30
2019-03-25 14:00:00 11.5 13 Nordeste 36 Noroeste 0 850.8 -1.2 31
2019-03-25 13:00:00 10.5 20 Norte 39 Noroeste 0 851.3 -0.9 32
2019-03-25 12:00:00 10.4 20 Norte 33 Norte 0 851.8 -0.3 32
2019-03-25 11:00:00 9.9 16 Nordeste 25 Nordeste 0 852 0 32
2019-03-25 10:00:00 8.9 4 Sudoeste 13 Este 0 852.2 0.5 29
2019-03-25 09:00:00 7.8 9 Sur 17 Sudeste 0 852.1 0.4 30
2019-03-25 08:00:00 6.7 11 Este 17 Este 0 852 0.3 33
2019-03-25 07:00:00 4.4 10 Sur 17 Sudeste 0 851.7 -0.4 38
2019-03-25 06:00:00 4.8 12 Sur 23 Sur 0 851.7 -0.8 38
2019-03-25 05:00:00 4.9 15 Sur 29 Sur 0 851.7 -0.9 38
2019-03-25 04:00:00 5.1 17 Sur 23 Sudoeste 0 852.1 -0.6 39
2019-03-25 03:00:00 5.4 15 Sur 31 Sudoeste 0 852.5 -0.2 37
2019-03-25 02:00:00 5.8 17 Sur 28 Sudeste 0 852.6 -0.1 34
2019-03-25 01:00:00 6 17 Sur 28 Sur 0 852.7 0 31
2019-03-25 00:00:00 6.6 10 Este 18 Este 0 852.7 0.2 30